KHCR

Heber City Municipal - Russ McDonald Field Airport

Heber, Utah, USA
METAR KHCR 131055Z AUTO 00000KT 10SM CLR M12/M13 A3040 RMK AO2
Observed Flight Rules
Dec-13 @ 10:55 UTC (10 minutes ago) Visual Flight Rules
Visibility Clouds
10 miles
  • Clear skies
Temperatures Readings
Current -12°C / 10°F
Dewpoint -13°C / 9°F
Humidity 92%
Altimeter 30.4" Hg
Pressure 1029 hPa
Elevation 1706
METAR KHCR 131055Z AUTO 00000KT 10SM CLR M12/M13 A3040 RMK AO2
Observed Flight Rules
Dec-13 @ 10:55 UTC
(10 minutes ago)
VFR
Clouds
  • Clear skies
Temperature Dewpoint
-12°C / 10°F -13°C / 9°F
Humidity Altimeter Pressure
92% 30.4" Hg 1029 hPa